Time,TemperatureF,DewpointF,PressureIn,WindDirection,WindDirectionDegrees,WindSpeedMPH,WindSpeedGustMPH,Humidity,HourlyPrecipIn,Conditions,Clouds,dailyrainin,SoftwareType,DateUTC
2013-02-24 00:04:00,36.0,36.0,30.45,North,-999,-999.0,-999.0,100,0.00,,,0.00,AD6XL-WX-0.1,2013-02-24 08:04:00,
2013-02-24 00:09:00,36.1,36.1,30.45,North,-999,-999.0,-999.0,100,0.00,,,0.00,AD6XL-WX-0.1,2013-02-24 08:09:00,
2013-02-24 00:14:00,36.3,36.3,30.45,North,-999,-999.0,-999.0,100,0.00,,,0.00,AD6XL-WX-0.1,2013-02-24 08:14:00,
2013-02-24 00:20:00,36.3,36.3,30.45,North,-999,-999.0,-999.0,100,0.00,,,0.00,AD6XL-WX-0.1,2013-02-24 08:20:00,
2013-02-24 00:25:00,36.4,36.4,30.45,North,-999,-999.0,-999.0,100,0.00,,,0.00,AD6XL-WX-0.1,2013-02-24 08:25:00,
2013-02-24 00:30:00,36.6,36.6,30.45,North,-999,-999.0,-999.0,100,0.00,,,0.00,AD6XL-WX-0.1,2013-02-24 08:30:00,
2013-02-24 00:35:00,36.7,36.7,30.45,North,-999,-999.0,-999.0,100,0.00,,,0.00,AD6XL-WX-0.1,2013-02-24 08:35:00,
2013-02-24 00:40:00,36.7,36.7,30.44,North,-999,-999.0,-999.0,100,0.00,,,0.00,AD6XL-WX-0.1,2013-02-24 08:40:00,
2013-02-24 00:45:00,36.7,36.7,30.44,North,-999,-999.0,-999.0,100,0.00,,,0.00,AD6XL-WX-0.1,2013-02-24 08:45:00,
2013-02-24 00:50:00,36.7,36.7,30.44,North,-999,-999.0,-999.0,100,0.00,,,0.00,AD6XL-WX-0.1,2013-02-24 08:50:00,
2013-02-24 00:55:00,36.8,36.8,30.44,North,-999,-999.0,-999.0,100,0.00,,,0.00,AD6XL-WX-0.1,2013-02-24 08:55:00,
2013-02-24 01:00:00,36.8,36.8,30.44,North,-999,-999.0,-999.0,100,0.00,,,0.00,AD6XL-WX-0.1,2013-02-24 09:00:00,
2013-02-24 01:05:00,36.9,36.9,30.44,North,-999,-999.0,-999.0,100,0.00,,,0.00,AD6XL-WX-0.1,2013-02-24 09:05:00,
2013-02-24 01:10:00,36.8,36.8,30.45,North,-999,-999.0,-999.0,100,0.00,,,0.00,AD6XL-WX-0.1,2013-02-24 09:10:00,
2013-02-24 01:16:00,36.7,36.7,30.45,North,-999,-999.0,-999.0,100,0.00,,,0.00,AD6XL-WX-0.1,2013-02-24 09:16:00,
2013-02-24 01:21:00,36.7,36.7,30.45,North,-999,-999.0,-999.0,100,0.00,,,0.00,AD6XL-WX-0.1,2013-02-24 09:21:00,
2013-02-24 01:26:00,36.6,36.6,30.45,North,-999,-999.0,-999.0,100,0.00,,,0.00,AD6XL-WX-0.1,2013-02-24 09:26:00,
2013-02-24 01:31:00,36.4,36.4,30.44,North,-999,-999.0,-999.0,100,0.00,,,0.00,AD6XL-WX-0.1,2013-02-24 09:31:00,
2013-02-24 01:36:00,36.3,36.3,30.44,North,-999,-999.0,-999.0,100,0.00,,,0.00,AD6XL-WX-0.1,2013-02-24 09:36:00,
2013-02-24 01:41:00,36.2,36.2,30.44,North,-999,-999.0,-999.0,100,0.00,,,0.00,AD6XL-WX-0.1,2013-02-24 09:41:00,
2013-02-24 01:46:00,36.1,36.1,30.45,North,-999,-999.0,-999.0,100,0.00,,,0.00,AD6XL-WX-0.1,2013-02-24 09:46:00,
2013-02-24 01:51:00,36.2,36.2,30.45,North,-999,-999.0,-999.0,100,0.00,,,0.00,AD6XL-WX-0.1,2013-02-24 09:51:00,
2013-02-24 01:56:00,36.2,36.2,30.45,North,-999,-999.0,-999.0,100,0.00,,,0.00,AD6XL-WX-0.1,2013-02-24 09:56:00,
2013-02-24 02:01:00,36.2,36.2,30.45,North,-999,-999.0,-999.0,100,0.00,,,0.00,AD6XL-WX-0.1,2013-02-24 10:01:00,
2013-02-24 02:06:00,36.2,36.2,30.45,North,-999,-999.0,-999.0,100,0.00,,,0.00,AD6XL-WX-0.1,2013-02-24 10:06:00,
2013-02-24 02:11:00,36.3,36.3,30.45,North,-999,-999.0,-999.0,100,0.00,,,0.00,AD6XL-WX-0.1,2013-02-24 10:11:00,
2013-02-24 02:17:00,36.3,36.3,30.45,North,-999,-999.0,-999.0,100,0.00,,,0.00,AD6XL-WX-0.1,2013-02-24 10:17:00,
2013-02-24 02:22:00,36.1,36.1,30.46,North,-999,-999.0,-999.0,100,0.00,,,0.00,AD6XL-WX-0.1,2013-02-24 10:22:00,
2013-02-24 02:27:00,36.0,36.0,30.46,North,-999,-999.0,-999.0,100,0.00,,,0.00,AD6XL-WX-0.1,2013-02-24 10:27:00,
2013-02-24 02:32:00,36.0,36.0,30.45,North,-999,-999.0,-999.0,100,0.00,,,0.00,AD6XL-WX-0.1,2013-02-24 10:32:00,
2013-02-24 02:37:00,35.9,35.9,30.45,North,-999,-999.0,-999.0,100,0.00,,,0.00,AD6XL-WX-0.1,2013-02-24 10:37:00,
2013-02-24 02:42:00,35.9,35.9,30.45,North,-999,-999.0,-999.0,100,0.00,,,0.00,AD6XL-WX-0.1,2013-02-24 10:42:00,
2013-02-24 02:47:00,35.8,35.8,30.45,North,-999,-999.0,-999.0,100,0.00,,,0.00,AD6XL-WX-0.1,2013-02-24 10:47:00,
2013-02-24 02:52:00,35.8,35.8,30.45,North,-999,-999.0,-999.0,100,0.00,,,0.00,AD6XL-WX-0.1,2013-02-24 10:52:00,
2013-02-24 02:57:00,35.8,35.8,30.45,North,-999,-999.0,-999.0,100,0.00,,,0.00,AD6XL-WX-0.1,2013-02-24 10:57:00,
2013-02-24 03:02:00,35.8,35.8,30.45,North,-999,-999.0,-999.0,100,0.00,,,0.00,AD6XL-WX-0.1,2013-02-24 11:02:00,
2013-02-24 03:07:00,35.8,35.8,30.45,North,-999,-999.0,-999.0,100,0.00,,,0.00,AD6XL-WX-0.1,2013-02-24 11:07:00,
2013-02-24 03:12:00,35.8,35.8,30.45,North,-999,-999.0,-999.0,100,0.00,,,0.00,AD6XL-WX-0.1,2013-02-24 11:12:00,
2013-02-24 03:18:00,35.8,35.8,30.44,North,-999,-999.0,-999.0,100,0.00,,,0.00,AD6XL-WX-0.1,2013-02-24 11:18:00,
2013-02-24 03:23:00,35.8,35.8,30.44,North,-999,-999.0,-999.0,100,0.00,,,0.00,AD6XL-WX-0.1,2013-02-24 11:23:00,
2013-02-24 03:28:00,35.8,35.8,30.44,North,-999,-999.0,-999.0,100,0.00,,,0.00,AD6XL-WX-0.1,2013-02-24 11:28:00,
2013-02-24 03:33:00,35.8,35.8,30.44,North,-999,-999.0,-999.0,100,0.00,,,0.00,AD6XL-WX-0.1,2013-02-24 11:33:00,
2013-02-24 03:38:00,35.8,35.8,30.44,North,-999,-999.0,-999.0,100,0.00,,,0.00,AD6XL-WX-0.1,2013-02-24 11:38:00,
2013-02-24 03:43:00,35.9,35.9,30.44,North,-999,-999.0,-999.0,100,0.00,,,0.00,AD6XL-WX-0.1,2013-02-24 11:43:00,
2013-02-24 03:48:00,35.9,35.9,30.44,North,-999,-999.0,-999.0,100,0.00,,,0.00,AD6XL-WX-0.1,2013-02-24 11:48:00,
2013-02-24 03:53:00,36.0,36.0,30.44,North,-999,-999.0,-999.0,100,0.00,,,0.00,AD6XL-WX-0.1,2013-02-24 11:53:00,
2013-02-24 03:58:00,36.0,36.0,30.44,North,-999,-999.0,-999.0,100,0.00,,,0.00,AD6XL-WX-0.1,2013-02-24 11:58:00,
2013-02-24 04:03:00,36.0,36.0,30.44,North,-999,-999.0,-999.0,100,0.00,,,0.00,AD6XL-WX-0.1,2013-02-24 12:03:00,
2013-02-24 04:08:00,35.9,35.9,30.44,North,-999,-999.0,-999.0,100,0.00,,,0.00,AD6XL-WX-0.1,2013-02-24 12:08:00,
2013-02-24 04:13:00,35.9,35.9,30.44,North,-999,-999.0,-999.0,100,0.00,,,0.00,AD6XL-WX-0.1,2013-02-24 12:13:00,
2013-02-24 04:19:00,35.8,35.8,30.44,North,-999,-999.0,-999.0,100,0.00,,,0.00,AD6XL-WX-0.1,2013-02-24 12:19:00,
2013-02-24 04:24:00,35.8,35.8,30.44,North,-999,-999.0,-999.0,100,0.00,,,0.00,AD6XL-WX-0.1,2013-02-24 12:24:00,
2013-02-24 04:29:00,35.7,35.7,30.44,North,-999,-999.0,-999.0,100,0.00,,,0.00,AD6XL-WX-0.1,2013-02-24 12:29:00,
2013-02-24 04:34:00,35.7,35.7,30.44,North,-999,-999.0,-999.0,100,0.00,,,0.00,AD6XL-WX-0.1,2013-02-24 12:34:00,
2013-02-24 04:39:00,35.7,35.7,30.44,North,-999,-999.0,-999.0,100,0.00,,,0.00,AD6XL-WX-0.1,2013-02-24 12:39:00,
2013-02-24 04:44:00,35.8,35.8,30.44,North,-999,-999.0,-999.0,100,0.00,,,0.00,AD6XL-WX-0.1,2013-02-24 12:44:00,
2013-02-24 04:49:00,35.8,35.8,30.44,North,-999,-999.0,-999.0,100,0.00,,,0.00,AD6XL-WX-0.1,2013-02-24 12:49:00,
2013-02-24 04:54:00,35.8,35.8,30.44,North,-999,-999.0,-999.0,100,0.00,,,0.00,AD6XL-WX-0.1,2013-02-24 12:54:00,
2013-02-24 04:59:00,35.7,35.7,30.44,North,-999,-999.0,-999.0,100,0.00,,,0.00,AD6XL-WX-0.1,2013-02-24 12:59:00,
2013-02-24 05:04:00,35.6,35.6,30.44,North,-999,-999.0,-999.0,100,0.00,,,0.00,AD6XL-WX-0.1,2013-02-24 13:04:00,
2013-02-24 05:09:00,35.5,35.5,30.44,North,-999,-999.0,-999.0,100,0.00,,,0.00,AD6XL-WX-0.1,2013-02-24 13:09:00,
2013-02-24 05:14:00,35.4,35.4,30.43,North,-999,-999.0,-999.0,100,0.00,,,0.00,AD6XL-WX-0.1,2013-02-24 13:14:00,
2013-02-24 05:20:00,35.4,35.4,30.43,North,-999,-999.0,-999.0,100,0.00,,,0.00,AD6XL-WX-0.1,2013-02-24 13:20:00,
2013-02-24 05:25:00,35.3,35.3,30.43,North,-999,-999.0,-999.0,100,0.00,,,0.00,AD6XL-WX-0.1,2013-02-24 13:25:00,
2013-02-24 05:30:00,35.1,35.1,30.43,North,-999,-999.0,-999.0,100,0.00,,,0.00,AD6XL-WX-0.1,2013-02-24 13:30:00,
2013-02-24 05:35:00,35.1,35.1,30.43,North,-999,-999.0,-999.0,100,0.00,,,0.00,AD6XL-WX-0.1,2013-02-24 13:35:00,
2013-02-24 05:40:00,35.0,35.0,30.43,North,-999,-999.0,-999.0,100,0.00,,,0.00,AD6XL-WX-0.1,2013-02-24 13:40:00,
2013-02-24 05:45:00,34.9,34.9,30.43,North,-999,-999.0,-999.0,100,0.00,,,0.00,AD6XL-WX-0.1,2013-02-24 13:45:00,
2013-02-24 05:50:00,34.9,34.9,30.43,North,-999,-999.0,-999.0,100,0.00,,,0.00,AD6XL-WX-0.1,2013-02-24 13:50:00,
2013-02-24 05:55:00,34.9,34.9,30.44,North,-999,-999.0,-999.0,100,0.00,,,0.00,AD6XL-WX-0.1,2013-02-24 13:55:00,
2013-02-24 06:00:00,34.9,34.9,30.43,North,-999,-999.0,-999.0,100,0.00,,,0.00,AD6XL-WX-0.1,2013-02-24 14:00:00,
2013-02-24 06:05:00,34.9,34.9,30.43,North,-999,-999.0,-999.0,100,0.00,,,0.00,AD6XL-WX-0.1,2013-02-24 14:05:00,
2013-02-24 06:10:00,35.0,35.0,30.43,North,-999,-999.0,-999.0,100,0.00,,,0.00,AD6XL-WX-0.1,2013-02-24 14:10:00,
2013-02-24 06:15:00,35.1,35.1,30.43,North,-999,-999.0,-999.0,100,0.00,,,0.00,AD6XL-WX-0.1,2013-02-24 14:15:00,
2013-02-24 06:21:00,35.1,35.1,30.43,North,-999,-999.0,-999.0,100,0.00,,,0.00,AD6XL-WX-0.1,2013-02-24 14:21:00,
2013-02-24 06:26:00,35.2,35.2,30.43,North,-999,-999.0,-999.0,100,0.00,,,0.00,AD6XL-WX-0.1,2013-02-24 14:26:00,
2013-02-24 06:31:00,35.2,35.2,30.44,North,-999,-999.0,-999.0,100,0.00,,,0.00,AD6XL-WX-0.1,2013-02-24 14:31:00,
2013-02-24 06:36:00,35.3,35.3,30.44,North,-999,-999.0,-999.0,100,0.00,,,0.00,AD6XL-WX-0.1,2013-02-24 14:36:00,
2013-02-24 06:41:00,35.4,35.4,30.43,North,-999,-999.0,-999.0,100,0.00,,,0.00,AD6XL-WX-0.1,2013-02-24 14:41:00,
2013-02-24 06:46:00,35.4,35.4,30.43,North,-999,-999.0,-999.0,100,0.00,,,0.00,AD6XL-WX-0.1,2013-02-24 14:46:00,
2013-02-24 06:51:00,35.5,35.5,30.43,North,-999,-999.0,-999.0,100,0.00,,,0.00,AD6XL-WX-0.1,2013-02-24 14:51:00,
2013-02-24 06:56:00,35.5,35.5,30.43,North,-999,-999.0,-999.0,100,0.00,,,0.00,AD6XL-WX-0.1,2013-02-24 14:56:00,
2013-02-24 07:01:00,35.6,35.6,30.43,North,-999,-999.0,-999.0,100,0.00,,,0.00,AD6XL-WX-0.1,2013-02-24 15:01:00,
2013-02-24 07:06:00,35.7,35.7,30.43,North,-999,-999.0,-999.0,100,0.00,,,0.00,AD6XL-WX-0.1,2013-02-24 15:06:00,
2013-02-24 07:11:00,35.7,35.7,30.43,North,-999,-999.0,-999.0,100,0.00,,,0.00,AD6XL-WX-0.1,2013-02-24 15:11:00,
2013-02-24 07:17:00,35.8,35.8,30.43,North,-999,-999.0,-999.0,100,0.00,,,0.00,AD6XL-WX-0.1,2013-02-24 15:17:00,
2013-02-24 07:22:00,35.8,35.8,30.43,North,-999,-999.0,-999.0,100,0.00,,,0.00,AD6XL-WX-0.1,2013-02-24 15:22:00,
2013-02-24 07:27:00,35.8,35.8,30.43,North,-999,-999.0,-999.0,100,0.00,,,0.00,AD6XL-WX-0.1,2013-02-24 15:27:00,
2013-02-24 07:32:00,35.8,35.8,30.43,North,-999,-999.0,-999.0,100,0.00,,,0.00,AD6XL-WX-0.1,2013-02-24 15:32:00,
2013-02-24 07:37:00,35.9,35.9,30.43,North,-999,-999.0,-999.0,100,0.00,,,0.00,AD6XL-WX-0.1,2013-02-24 15:37:00,
2013-02-24 07:42:00,35.9,35.9,30.43,North,-999,-999.0,-999.0,100,0.00,,,0.00,AD6XL-WX-0.1,2013-02-24 15:42:00,
2013-02-24 07:47:00,36.0,36.0,30.43,North,-999,-999.0,-999.0,100,0.00,,,0.00,AD6XL-WX-0.1,2013-02-24 15:47:00,
2013-02-24 07:52:00,36.1,36.1,30.43,North,-999,-999.0,-999.0,100,0.00,,,0.00,AD6XL-WX-0.1,2013-02-24 15:52:00,
2013-02-24 07:57:00,36.3,36.3,30.43,North,-999,-999.0,-999.0,100,0.00,,,0.00,AD6XL-WX-0.1,2013-02-24 15:57:00,
2013-02-24 08:02:00,36.4,36.4,30.43,North,-999,-999.0,-999.0,100,0.00,,,0.00,AD6XL-WX-0.1,2013-02-24 16:02:00,
2013-02-24 08:07:00,36.5,36.5,30.43,North,-999,-999.0,-999.0,100,0.00,,,0.00,AD6XL-WX-0.1,2013-02-24 16:07:00,
2013-02-24 08:12:00,36.6,36.6,30.42,North,-999,-999.0,-999.0,100,0.00,,,0.00,AD6XL-WX-0.1,2013-02-24 16:12:00,
2013-02-24 08:18:00,36.7,36.7,30.42,North,-999,-999.0,-999.0,99,0.00,,,0.00,AD6XL-WX-0.1,2013-02-24 16:18:00,
2013-02-24 08:23:00,36.8,36.8,30.42,North,-999,-999.0,-999.0,99,0.00,,,0.00,AD6XL-WX-0.1,2013-02-24 16:23:00,
2013-02-24 08:28:00,37.0,36.9,30.42,North,-999,-999.0,-999.0,99,0.00,,,0.00,AD6XL-WX-0.1,2013-02-24 16:28:00,
2013-02-24 08:33:00,37.2,37.1,30.42,North,-999,-999.0,-999.0,99,0.00,,,0.00,AD6XL-WX-0.1,2013-02-24 16:33:00,
2013-02-24 08:38:00,37.4,37.3,30.42,North,-999,-999.0,-999.0,99,0.00,,,0.00,AD6XL-WX-0.1,2013-02-24 16:38:00,
2013-02-24 08:43:00,37.6,37.4,30.42,North,-999,-999.0,-999.0,99,0.00,,,0.00,AD6XL-WX-0.1,2013-02-24 16:43:00,
2013-02-24 08:48:00,37.8,37.5,30.42,North,-999,-999.0,-999.0,98,0.00,,,0.00,AD6XL-WX-0.1,2013-02-24 16:48:00,
2013-02-24 08:53:00,38.0,37.6,30.42,North,-999,-999.0,-999.0,98,0.00,,,0.00,AD6XL-WX-0.1,2013-02-24 16:53:00,
2013-02-24 08:58:00,38.2,37.7,30.42,North,-999,-999.0,-999.0,98,0.00,,,0.00,AD6XL-WX-0.1,2013-02-24 16:58:00,
2013-02-24 09:03:00,38.5,37.9,30.42,North,-999,-999.0,-999.0,97,0.00,,,0.00,AD6XL-WX-0.1,2013-02-24 17:03:00,
2013-02-24 09:08:00,38.6,37.9,30.42,North,-999,-999.0,-999.0,97,0.00,,,0.00,AD6XL-WX-0.1,2013-02-24 17:08:00,
2013-02-24 09:13:00,38.8,38.0,30.42,North,-999,-999.0,-999.0,96,0.00,,,0.00,AD6XL-WX-0.1,2013-02-24 17:13:00,
2013-02-24 09:18:00,39.0,38.1,30.42,North,-999,-999.0,-999.0,96,0.00,,,0.00,AD6XL-WX-0.1,2013-02-24 17:18:00,
2013-02-24 09:24:00,39.2,38.1,30.42,North,-999,-999.0,-999.0,95,0.00,,,0.00,AD6XL-WX-0.1,2013-02-24 17:24:00,
2013-02-24 09:29:00,39.1,37.9,30.42,North,-999,-999.0,-999.0,95,0.00,,,0.00,AD6XL-WX-0.1,2013-02-24 17:29:00,
2013-02-24 09:34:00,39.0,37.9,30.42,North,-999,-999.0,-999.0,95,0.00,,,0.00,AD6XL-WX-0.1,2013-02-24 17:34:00,
2013-02-24 09:39:00,39.0,38.0,30.42,North,-999,-999.0,-999.0,96,0.00,,,0.00,AD6XL-WX-0.1,2013-02-24 17:39:00,
2013-02-24 09:44:00,39.2,38.3,30.42,North,-999,-999.0,-999.0,96,0.00,,,0.00,AD6XL-WX-0.1,2013-02-24 17:44:00,
2013-02-24 09:49:00,39.4,38.5,30.42,North,-999,-999.0,-999.0,96,0.00,,,0.00,AD6XL-WX-0.1,2013-02-24 17:49:00,
2013-02-24 09:54:00,39.6,38.8,30.42,North,-999,-999.0,-999.0,96,0.00,,,0.00,AD6XL-WX-0.1,2013-02-24 17:54:00,
2013-02-24 09:59:00,39.8,38.8,30.42,North,-999,-999.0,-999.0,95,0.00,,,0.00,AD6XL-WX-0.1,2013-02-24 17:59:00,
2013-02-24 10:04:00,40.1,38.7,30.42,North,-999,-999.0,-999.0,94,0.00,,,0.00,AD6XL-WX-0.1,2013-02-24 18:04:00,
2013-02-24 10:09:00,40.4,39.0,30.41,North,-999,-999.0,-999.0,94,0.00,,,0.00,AD6XL-WX-0.1,2013-02-24 18:09:00,
2013-02-24 10:14:00,40.7,38.9,30.41,North,-999,-999.0,-999.0,93,0.00,,,0.00,AD6XL-WX-0.1,2013-02-24 18:14:00,
2013-02-24 10:19:00,40.9,39.0,30.41,North,-999,-999.0,-999.0,92,0.00,,,0.00,AD6XL-WX-0.1,2013-02-24 18:19:00,
2013-02-24 10:24:00,41.2,39.2,30.41,North,-999,-999.0,-999.0,92,0.00,,,0.00,AD6XL-WX-0.1,2013-02-24 18:24:00,
2013-02-24 10:29:00,41.4,39.2,30.40,North,-999,-999.0,-999.0,91,0.00,,,0.00,AD6XL-WX-0.1,2013-02-24 18:29:00,
2013-02-24 10:35:00,41.6,39.3,30.40,North,-999,-999.0,-999.0,91,0.00,,,0.00,AD6XL-WX-0.1,2013-02-24 18:35:00,
2013-02-24 10:40:00,41.9,39.5,30.40,North,-999,-999.0,-999.0,91,0.00,,,0.00,AD6XL-WX-0.1,2013-02-24 18:40:00,
2013-02-24 10:45:00,42.3,39.4,30.40,North,-999,-999.0,-999.0,89,0.00,,,0.00,AD6XL-WX-0.1,2013-02-24 18:45:00,
2013-02-24 10:50:00,42.5,39.1,30.39,North,-999,-999.0,-999.0,87,0.00,,,0.00,AD6XL-WX-0.1,2013-02-24 18:50:00,
2013-02-24 10:55:00,42.8,39.0,30.39,North,-999,-999.0,-999.0,86,0.00,,,0.00,AD6XL-WX-0.1,2013-02-24 18:55:00,
2013-02-24 11:00:00,43.1,39.2,30.39,North,-999,-999.0,-999.0,85,0.00,,,0.00,AD6XL-WX-0.1,2013-02-24 19:00:00,
2013-02-24 11:05:00,43.4,39.7,30.39,North,-999,-999.0,-999.0,86,0.00,,,0.00,AD6XL-WX-0.1,2013-02-24 19:05:00,
2013-02-24 11:10:00,43.7,39.9,30.39,North,-999,-999.0,-999.0,86,0.00,,,0.00,AD6XL-WX-0.1,2013-02-24 19:10:00,
2013-02-24 11:15:00,44.0,40.0,30.39,North,-999,-999.0,-999.0,85,0.00,,,0.00,AD6XL-WX-0.1,2013-02-24 19:15:00,
2013-02-24 11:20:00,44.2,39.9,30.39,North,-999,-999.0,-999.0,84,0.00,,,0.00,AD6XL-WX-0.1,2013-02-24 19:20:00,
2013-02-24 11:25:00,44.5,39.6,30.38,North,-999,-999.0,-999.0,82,0.00,,,0.00,AD6XL-WX-0.1,2013-02-24 19:25:00,
2013-02-24 11:30:00,44.7,39.4,30.38,North,-999,-999.0,-999.0,81,0.00,,,0.00,AD6XL-WX-0.1,2013-02-24 19:30:00,
2013-02-24 11:35:00,45.0,39.0,30.38,North,-999,-999.0,-999.0,79,0.00,,,0.00,AD6XL-WX-0.1,2013-02-24 19:35:00,
2013-02-24 11:40:00,45.3,39.3,30.38,North,-999,-999.0,-999.0,79,0.00,,,0.00,AD6XL-WX-0.1,2013-02-24 19:40:00,
2013-02-24 11:46:00,45.6,39.3,30.38,North,-999,-999.0,-999.0,78,0.00,,,0.00,AD6XL-WX-0.1,2013-02-24 19:46:00,
2013-02-24 11:51:00,45.8,39.3,30.38,North,-999,-999.0,-999.0,77,0.00,,,0.00,AD6XL-WX-0.1,2013-02-24 19:51:00,
2013-02-24 11:56:00,46.1,39.1,30.37,North,-999,-999.0,-999.0,76,0.00,,,0.00,AD6XL-WX-0.1,2013-02-24 19:56:00,
2013-02-24 12:01:00,46.3,38.9,30.37,North,-999,-999.0,-999.0,75,0.00,,,0.00,AD6XL-WX-0.1,2013-02-24 20:01:00,
2013-02-24 12:06:00,46.6,39.0,30.37,North,-999,-999.0,-999.0,74,0.00,,,0.00,AD6XL-WX-0.1,2013-02-24 20:06:00,
2013-02-24 12:11:00,46.8,39.7,30.37,North,-999,-999.0,-999.0,76,0.00,,,0.00,AD6XL-WX-0.1,2013-02-24 20:11:00,
2013-02-24 12:16:00,47.1,40.1,30.36,North,-999,-999.0,-999.0,76,0.00,,,0.00,AD6XL-WX-0.1,2013-02-24 20:16:00,
2013-02-24 12:21:00,47.4,40.3,30.36,North,-999,-999.0,-999.0,76,0.00,,,0.00,AD6XL-WX-0.1,2013-02-24 20:21:00,
2013-02-24 12:26:00,47.7,40.8,30.36,North,-999,-999.0,-999.0,76,0.00,,,0.00,AD6XL-WX-0.1,2013-02-24 20:26:00,
2013-02-24 12:31:00,48.1,40.7,30.36,North,-999,-999.0,-999.0,75,0.00,,,0.00,AD6XL-WX-0.1,2013-02-24 20:31:00,
2013-02-24 12:36:00,48.5,40.6,30.36,North,-999,-999.0,-999.0,74,0.00,,,0.00,AD6XL-WX-0.1,2013-02-24 20:36:00,
2013-02-24 12:41:00,49.0,40.8,30.35,North,-999,-999.0,-999.0,73,0.00,,,0.00,AD6XL-WX-0.1,2013-02-24 20:41:00,
2013-02-24 12:46:00,49.5,39.5,30.35,North,-999,-999.0,-999.0,68,0.00,,,0.00,AD6XL-WX-0.1,2013-02-24 20:46:00,
2013-02-24 12:51:00,50.0,38.9,30.35,North,-999,-999.0,-999.0,65,0.00,,,0.00,AD6XL-WX-0.1,2013-02-24 20:51:00,
2013-02-24 12:57:00,50.6,38.3,30.34,North,-999,-999.0,-999.0,62,0.00,,,0.00,AD6XL-WX-0.1,2013-02-24 20:57:00,
2013-02-24 13:02:00,51.1,38.0,30.34,North,-999,-999.0,-999.0,60,0.00,,,0.00,AD6XL-WX-0.1,2013-02-24 21:02:00,
2013-02-24 13:07:00,51.6,37.0,30.34,North,-999,-999.0,-999.0,57,0.00,,,0.00,AD6XL-WX-0.1,2013-02-24 21:07:00,
2013-02-24 13:12:00,51.9,36.6,30.33,North,-999,-999.0,-999.0,55,0.00,,,0.00,AD6XL-WX-0.1,2013-02-24 21:12:00,
2013-02-24 13:17:00,52.2,37.6,30.33,North,-999,-999.0,-999.0,57,0.00,,,0.00,AD6XL-WX-0.1,2013-02-24 21:17:00,
2013-02-24 13:22:00,52.7,37.6,30.33,North,-999,-999.0,-999.0,56,0.00,,,0.00,AD6XL-WX-0.1,2013-02-24 21:22:00,
2013-02-24 13:27:00,53.1,37.1,30.33,North,-999,-999.0,-999.0,54,0.00,,,0.00,AD6XL-WX-0.1,2013-02-24 21:27:00,
2013-02-24 13:32:00,53.4,37.8,30.33,North,-999,-999.0,-999.0,55,0.00,,,0.00,AD6XL-WX-0.1,2013-02-24 21:32:00,
2013-02-24 13:37:00,53.7,38.2,30.32,North,-999,-999.0,-999.0,55,0.00,,,0.00,AD6XL-WX-0.1,2013-02-24 21:37:00,
2013-02-24 13:42:00,54.1,37.6,30.32,North,-999,-999.0,-999.0,53,0.00,,,0.00,AD6XL-WX-0.1,2013-02-24 21:42:00,
2013-02-24 13:48:00,54.2,37.5,30.31,North,-999,-999.0,-999.0,53,0.00,,,0.00,AD6XL-WX-0.1,2013-02-24 21:48:00,
2013-02-24 13:53:00,54.5,37.7,30.31,North,-999,-999.0,-999.0,52,0.00,,,0.00,AD6XL-WX-0.1,2013-02-24 21:53:00,
2013-02-24 13:58:00,54.7,37.2,30.31,North,-999,-999.0,-999.0,51,0.00,,,0.00,AD6XL-WX-0.1,2013-02-24 21:58:00,
2013-02-24 14:03:00,55.0,37.1,30.30,North,-999,-999.0,-999.0,50,0.00,,,0.00,AD6XL-WX-0.1,2013-02-24 22:03:00,
2013-02-24 14:08:00,55.1,36.9,30.30,North,-999,-999.0,-999.0,50,0.00,,,0.00,AD6XL-WX-0.1,2013-02-24 22:08:00,
2013-02-24 14:13:00,55.3,37.4,30.29,North,-999,-999.0,-999.0,50,0.00,,,0.00,AD6XL-WX-0.1,2013-02-24 22:13:00,
2013-02-24 14:18:00,55.8,38.6,30.29,North,-999,-999.0,-999.0,52,0.00,,,0.00,AD6XL-WX-0.1,2013-02-24 22:18:00,
2013-02-24 14:23:00,56.2,38.8,30.29,North,-999,-999.0,-999.0,52,0.00,,,0.00,AD6XL-WX-0.1,2013-02-24 22:23:00,
2013-02-24 14:28:00,56.5,38.4,30.29,North,-999,-999.0,-999.0,50,0.00,,,0.00,AD6XL-WX-0.1,2013-02-24 22:28:00,
2013-02-24 14:33:00,56.7,37.7,30.29,North,-999,-999.0,-999.0,48,0.00,,,0.00,AD6XL-WX-0.1,2013-02-24 22:33:00,
2013-02-24 14:38:00,56.9,37.5,30.29,North,-999,-999.0,-999.0,48,0.00,,,0.00,AD6XL-WX-0.1,2013-02-24 22:38:00,
2013-02-24 14:44:00,57.0,37.2,30.28,North,-999,-999.0,-999.0,47,0.00,,,0.00,AD6XL-WX-0.1,2013-02-24 22:44:00,
2013-02-24 14:49:00,57.0,36.6,30.28,North,-999,-999.0,-999.0,46,0.00,,,0.00,AD6XL-WX-0.1,2013-02-24 22:49:00,
2013-02-24 14:54:00,57.0,36.2,30.28,North,-999,-999.0,-999.0,45,0.00,,,0.00,AD6XL-WX-0.1,2013-02-24 22:54:00,
2013-02-24 14:59:00,56.7,36.1,30.28,North,-999,-999.0,-999.0,45,0.00,,,0.00,AD6XL-WX-0.1,2013-02-24 22:59:00,
2013-02-24 15:04:00,56.3,36.4,30.28,North,-999,-999.0,-999.0,47,0.00,,,0.00,AD6XL-WX-0.1,2013-02-24 23:04:00,
2013-02-24 15:09:00,56.0,36.5,30.27,North,-999,-999.0,-999.0,47,0.00,,,0.00,AD6XL-WX-0.1,2013-02-24 23:09:00,
2013-02-24 15:14:00,55.6,36.3,30.27,North,-999,-999.0,-999.0,48,0.00,,,0.00,AD6XL-WX-0.1,2013-02-24 23:14:00,
2013-02-24 15:19:00,55.2,35.6,30.27,North,-999,-999.0,-999.0,47,0.00,,,0.00,AD6XL-WX-0.1,2013-02-24 23:19:00,
2013-02-24 15:24:00,55.1,35.4,30.27,North,-999,-999.0,-999.0,47,0.00,,,0.00,AD6XL-WX-0.1,2013-02-24 23:24:00,
2013-02-24 15:29:00,55.0,35.4,30.26,North,-999,-999.0,-999.0,47,0.00,,,0.00,AD6XL-WX-0.1,2013-02-24 23:29:00,
2013-02-24 15:35:00,54.7,35.6,30.26,North,-999,-999.0,-999.0,48,0.00,,,0.00,AD6XL-WX-0.1,2013-02-24 23:35:00,
2013-02-24 15:40:00,54.5,36.0,30.26,North,-999,-999.0,-999.0,49,0.00,,,0.00,AD6XL-WX-0.1,2013-02-24 23:40:00,
2013-02-24 15:45:00,54.3,36.0,30.26,North,-999,-999.0,-999.0,49,0.00,,,0.00,AD6XL-WX-0.1,2013-02-24 23:45:00,
2013-02-24 15:50:00,54.1,36.1,30.26,North,-999,-999.0,-999.0,50,0.00,,,0.00,AD6XL-WX-0.1,2013-02-24 23:50:00,
2013-02-24 15:55:00,53.8,35.7,30.25,North,-999,-999.0,-999.0,50,0.00,,,0.00,AD6XL-WX-0.1,2013-02-24 23:55:00,
2013-02-24 16:00:00,53.6,35.5,30.25,North,-999,-999.0,-999.0,50,0.00,,,0.00,AD6XL-WX-0.1,2013-02-25 00:00:00,
2013-02-24 16:05:00,53.4,35.6,30.25,North,-999,-999.0,-999.0,50,0.00,,,0.00,AD6XL-WX-0.1,2013-02-25 00:05:00,
2013-02-24 16:10:00,53.3,35.5,30.25,North,-999,-999.0,-999.0,50,0.00,,,0.00,AD6XL-WX-0.1,2013-02-25 00:10:00,
2013-02-24 16:15:00,53.1,35.6,30.24,North,-999,-999.0,-999.0,51,0.00,,,0.00,AD6XL-WX-0.1,2013-02-25 00:15:00,
2013-02-24 16:20:00,52.9,35.8,30.24,North,-999,-999.0,-999.0,52,0.00,,,0.00,AD6XL-WX-0.1,2013-02-25 00:20:00,
2013-02-24 16:26:00,52.7,36.1,30.24,North,-999,-999.0,-999.0,53,0.00,,,0.00,AD6XL-WX-0.1,2013-02-25 00:26:00,
2013-02-24 16:31:00,52.5,36.3,30.24,North,-999,-999.0,-999.0,53,0.00,,,0.00,AD6XL-WX-0.1,2013-02-25 00:31:00,
2013-02-24 16:36:00,52.4,36.7,30.23,North,-999,-999.0,-999.0,54,0.00,,,0.00,AD6XL-WX-0.1,2013-02-25 00:36:00,
2013-02-24 16:41:00,52.3,36.8,30.23,North,-999,-999.0,-999.0,55,0.00,,,0.00,AD6XL-WX-0.1,2013-02-25 00:41:00,
2013-02-24 16:46:00,52.1,36.9,30.23,North,-999,-999.0,-999.0,56,0.00,,,0.00,AD6XL-WX-0.1,2013-02-25 00:46:00,
2013-02-24 16:51:00,51.9,37.1,30.23,North,-999,-999.0,-999.0,56,0.00,,,0.00,AD6XL-WX-0.1,2013-02-25 00:51:00,
2013-02-24 16:56:00,51.7,37.2,30.23,North,-999,-999.0,-999.0,57,0.00,,,0.00,AD6XL-WX-0.1,2013-02-25 00:56:00,
2013-02-24 17:01:00,51.5,37.3,30.23,North,-999,-999.0,-999.0,58,0.00,,,0.00,AD6XL-WX-0.1,2013-02-25 01:01:00,
2013-02-24 17:06:00,51.3,37.2,30.22,North,-999,-999.0,-999.0,58,0.00,,,0.00,AD6XL-WX-0.1,2013-02-25 01:06:00,
2013-02-24 17:11:00,51.0,37.2,30.22,North,-999,-999.0,-999.0,59,0.00,,,0.00,AD6XL-WX-0.1,2013-02-25 01:11:00,
2013-02-24 17:16:00,50.8,36.9,30.22,North,-999,-999.0,-999.0,58,0.00,,,0.00,AD6XL-WX-0.1,2013-02-25 01:16:00,
2013-02-24 17:22:00,50.6,36.7,30.22,North,-999,-999.0,-999.0,58,0.00,,,0.00,AD6XL-WX-0.1,2013-02-25 01:22:00,
2013-02-24 17:27:00,50.4,36.8,30.22,North,-999,-999.0,-999.0,59,0.00,,,0.00,AD6XL-WX-0.1,2013-02-25 01:27:00,
2013-02-24 17:32:00,50.1,36.6,30.22,North,-999,-999.0,-999.0,59,0.00,,,0.00,AD6XL-WX-0.1,2013-02-25 01:32:00,
2013-02-24 17:37:00,49.8,36.4,30.21,North,-999,-999.0,-999.0,59,0.00,,,0.00,AD6XL-WX-0.1,2013-02-25 01:37:00,
2013-02-24 17:42:00,49.6,36.7,30.21,North,-999,-999.0,-999.0,60,0.00,,,0.00,AD6XL-WX-0.1,2013-02-25 01:42:00,
2013-02-24 17:47:00,49.4,36.8,30.21,North,-999,-999.0,-999.0,61,0.00,,,0.00,AD6XL-WX-0.1,2013-02-25 01:47:00,
2013-02-24 17:52:00,49.1,36.9,30.21,North,-999,-999.0,-999.0,62,0.00,,,0.00,AD6XL-WX-0.1,2013-02-25 01:52:00,
2013-02-24 17:57:00,48.8,37.1,30.20,North,-999,-999.0,-999.0,63,0.00,,,0.00,AD6XL-WX-0.1,2013-02-25 01:57:00,
2013-02-24 18:02:00,48.6,37.3,30.20,North,-999,-999.0,-999.0,64,0.00,,,0.00,AD6XL-WX-0.1,2013-02-25 02:02:00,
2013-02-24 18:07:00,48.4,37.3,30.20,North,-999,-999.0,-999.0,65,0.00,,,0.00,AD6XL-WX-0.1,2013-02-25 02:07:00,
2013-02-24 18:12:00,48.2,37.2,30.20,North,-999,-999.0,-999.0,65,0.00,,,0.00,AD6XL-WX-0.1,2013-02-25 02:12:00,
2013-02-24 18:17:00,48.0,37.1,30.20,North,-999,-999.0,-999.0,65,0.00,,,0.00,AD6XL-WX-0.1,2013-02-25 02:17:00,
2013-02-24 18:22:00,47.9,36.9,30.20,North,-999,-999.0,-999.0,65,0.00,,,0.00,AD6XL-WX-0.1,2013-02-25 02:22:00,
2013-02-24 18:28:00,47.8,36.7,30.19,North,-999,-999.0,-999.0,65,0.00,,,0.00,AD6XL-WX-0.1,2013-02-25 02:28:00,
2013-02-24 18:33:00,47.6,36.8,30.19,North,-999,-999.0,-999.0,65,0.00,,,0.00,AD6XL-WX-0.1,2013-02-25 02:33:00,
2013-02-24 18:38:00,47.5,36.9,30.19,North,-999,-999.0,-999.0,66,0.00,,,0.00,AD6XL-WX-0.1,2013-02-25 02:38:00,
2013-02-24 18:43:00,47.3,37.0,30.19,North,-999,-999.0,-999.0,67,0.00,,,0.00,AD6XL-WX-0.1,2013-02-25 02:43:00,
2013-02-24 18:48:00,47.1,37.1,30.19,North,-999,-999.0,-999.0,67,0.00,,,0.00,AD6XL-WX-0.1,2013-02-25 02:48:00,
2013-02-24 18:53:00,47.0,37.0,30.19,North,-999,-999.0,-999.0,68,0.00,,,0.00,AD6XL-WX-0.1,2013-02-25 02:53:00,
2013-02-24 18:58:00,46.8,37.1,30.19,North,-999,-999.0,-999.0,68,0.00,,,0.00,AD6XL-WX-0.1,2013-02-25 02:58:00,
2013-02-24 19:03:00,46.6,37.0,30.19,North,-999,-999.0,-999.0,69,0.00,,,0.00,AD6XL-WX-0.1,2013-02-25 03:03:00,
2013-02-24 19:08:00,46.3,36.9,30.18,North,-999,-999.0,-999.0,69,0.00,,,0.00,AD6XL-WX-0.1,2013-02-25 03:08:00,
2013-02-24 19:13:00,45.9,36.9,30.18,North,-999,-999.0,-999.0,70,0.00,,,0.00,AD6XL-WX-0.1,2013-02-25 03:13:00,
2013-02-24 19:18:00,45.5,36.8,30.18,North,-999,-999.0,-999.0,71,0.00,,,0.00,AD6XL-WX-0.1,2013-02-25 03:18:00,
2013-02-24 19:23:00,45.1,36.8,30.18,North,-999,-999.0,-999.0,72,0.00,,,0.00,AD6XL-WX-0.1,2013-02-25 03:23:00,
2013-02-24 19:28:00,44.8,36.8,30.18,North,-999,-999.0,-999.0,73,0.00,,,0.00,AD6XL-WX-0.1,2013-02-25 03:28:00,
2013-02-24 19:34:00,44.5,36.8,30.18,North,-999,-999.0,-999.0,74,0.00,,,0.00,AD6XL-WX-0.1,2013-02-25 03:34:00,
2013-02-24 19:39:00,44.3,36.8,30.18,North,-999,-999.0,-999.0,74,0.00,,,0.00,AD6XL-WX-0.1,2013-02-25 03:39:00,
2013-02-24 19:44:00,43.9,36.8,30.18,North,-999,-999.0,-999.0,75,0.00,,,0.00,AD6XL-WX-0.1,2013-02-25 03:44:00,
2013-02-24 19:49:00,43.6,36.8,30.17,North,-999,-999.0,-999.0,76,0.00,,,0.00,AD6XL-WX-0.1,2013-02-25 03:49:00,
2013-02-24 19:54:00,43.2,36.7,30.17,North,-999,-999.0,-999.0,77,0.00,,,0.00,AD6XL-WX-0.1,2013-02-25 03:54:00,
2013-02-24 19:59:00,42.9,36.6,30.17,North,-999,-999.0,-999.0,78,0.00,,,0.00,AD6XL-WX-0.1,2013-02-25 03:59:00,
2013-02-24 20:04:00,42.7,36.6,30.16,North,-999,-999.0,-999.0,78,0.00,,,0.00,AD6XL-WX-0.1,2013-02-25 04:04:00,
2013-02-24 20:09:00,42.5,36.7,30.16,North,-999,-999.0,-999.0,79,0.00,,,0.00,AD6XL-WX-0.1,2013-02-25 04:09:00,
2013-02-24 20:14:00,42.5,37.1,30.16,North,-999,-999.0,-999.0,81,0.00,,,0.00,AD6XL-WX-0.1,2013-02-25 04:14:00,
2013-02-24 20:19:00,42.7,37.6,30.16,North,-999,-999.0,-999.0,81,0.00,,,0.00,AD6XL-WX-0.1,2013-02-25 04:19:00,
2013-02-24 20:24:00,43.0,37.8,30.16,North,-999,-999.0,-999.0,81,0.00,,,0.00,AD6XL-WX-0.1,2013-02-25 04:24:00,
2013-02-24 20:29:00,43.2,37.9,30.16,North,-999,-999.0,-999.0,81,0.00,,,0.00,AD6XL-WX-0.1,2013-02-25 04:29:00,
2013-02-24 20:35:00,43.4,38.0,30.16,North,-999,-999.0,-999.0,81,0.00,,,0.00,AD6XL-WX-0.1,2013-02-25 04:35:00,
2013-02-24 20:40:00,43.6,38.1,30.16,North,-999,-999.0,-999.0,80,0.00,,,0.00,AD6XL-WX-0.1,2013-02-25 04:40:00,
2013-02-24 20:45:00,43.9,38.2,30.16,North,-999,-999.0,-999.0,80,0.00,,,0.00,AD6XL-WX-0.1,2013-02-25 04:45:00,
2013-02-24 20:50:00,43.9,38.3,30.15,North,-999,-999.0,-999.0,80,0.00,,,0.00,AD6XL-WX-0.1,2013-02-25 04:50:00,
2013-02-24 20:55:00,44.0,38.3,30.15,North,-999,-999.0,-999.0,80,0.00,,,0.00,AD6XL-WX-0.1,2013-02-25 04:55:00,
2013-02-24 21:00:00,44.0,38.4,30.15,North,-999,-999.0,-999.0,80,0.00,,,0.00,AD6XL-WX-0.1,2013-02-25 05:00:00,
2013-02-24 21:01:00,44.0,38.4,30.15,North,-999,-999.0,-999.0,80,0.00,,,0.00,AD6XL-WX-0.1,2013-02-25 05:01:00,
2013-02-24 21:06:00,44.1,38.5,30.16,North,-999,-999.0,-999.0,80,0.00,,,0.00,AD6XL-WX-0.1,2013-02-25 05:06:00,
2013-02-24 21:11:00,44.2,38.5,30.16,North,-999,-999.0,-999.0,80,0.00,,,0.00,AD6XL-WX-0.1,2013-02-25 05:11:00,
2013-02-24 21:16:00,44.2,38.4,30.15,North,-999,-999.0,-999.0,79,0.00,,,0.00,AD6XL-WX-0.1,2013-02-25 05:16:00,
2013-02-24 21:21:00,44.2,38.3,30.15,North,-999,-999.0,-999.0,79,0.00,,,0.00,AD6XL-WX-0.1,2013-02-25 05:21:00,
2013-02-24 21:26:00,44.3,38.4,30.15,North,-999,-999.0,-999.0,79,0.00,,,0.00,AD6XL-WX-0.1,2013-02-25 05:26:00,
2013-02-24 21:31:00,44.3,38.5,30.15,North,-999,-999.0,-999.0,80,0.00,,,0.00,AD6XL-WX-0.1,2013-02-25 05:31:00,
2013-02-24 21:36:00,44.3,38.5,30.15,North,-999,-999.0,-999.0,80,0.00,,,0.00,AD6XL-WX-0.1,2013-02-25 05:36:00,
2013-02-24 21:41:00,44.2,38.5,30.15,North,-999,-999.0,-999.0,79,0.00,,,0.00,AD6XL-WX-0.1,2013-02-25 05:41:00,
2013-02-24 21:47:00,44.2,38.4,30.15,North,-999,-999.0,-999.0,79,0.00,,,0.00,AD6XL-WX-0.1,2013-02-25 05:47:00,
2013-02-24 21:52:00,44.2,38.3,30.15,North,-999,-999.0,-999.0,79,0.00,,,0.00,AD6XL-WX-0.1,2013-02-25 05:52:00,
2013-02-24 21:57:00,44.2,38.2,30.15,North,-999,-999.0,-999.0,79,0.00,,,0.00,AD6XL-WX-0.1,2013-02-25 05:57:00,
2013-02-24 22:02:00,44.2,38.0,30.15,North,-999,-999.0,-999.0,78,0.00,,,0.00,AD6XL-WX-0.1,2013-02-25 06:02:00,
2013-02-24 22:07:00,44.2,37.7,30.14,North,-999,-999.0,-999.0,77,0.00,,,0.00,AD6XL-WX-0.1,2013-02-25 06:07:00,
2013-02-24 22:12:00,44.2,37.1,30.14,North,-999,-999.0,-999.0,75,0.00,,,0.00,AD6XL-WX-0.1,2013-02-25 06:12:00,
2013-02-24 22:17:00,44.3,36.5,30.14,North,-999,-999.0,-999.0,73,0.00,,,0.00,AD6XL-WX-0.1,2013-02-25 06:17:00,
2013-02-24 22:22:00,44.3,36.2,30.13,North,-999,-999.0,-999.0,72,0.00,,,0.00,AD6XL-WX-0.1,2013-02-25 06:22:00,
2013-02-24 22:27:00,44.4,36.3,30.13,North,-999,-999.0,-999.0,73,0.00,,,0.00,AD6XL-WX-0.1,2013-02-25 06:27:00,
2013-02-24 22:32:00,44.4,36.6,30.13,North,-999,-999.0,-999.0,73,0.00,,,0.00,AD6XL-WX-0.1,2013-02-25 06:32:00,
2013-02-24 22:37:00,44.5,37.3,30.13,North,-999,-999.0,-999.0,75,0.00,,,0.00,AD6XL-WX-0.1,2013-02-25 06:37:00,
2013-02-24 22:42:00,44.5,38.4,30.13,North,-999,-999.0,-999.0,78,0.00,,,0.00,AD6XL-WX-0.1,2013-02-25 06:42:00,
2013-02-24 22:47:00,44.6,38.7,30.12,North,-999,-999.0,-999.0,79,0.00,,,0.00,AD6XL-WX-0.1,2013-02-25 06:47:00,
2013-02-24 22:52:00,44.6,38.7,30.12,North,-999,-999.0,-999.0,79,0.00,,,0.00,AD6XL-WX-0.1,2013-02-25 06:52:00,
2013-02-24 22:58:00,44.6,38.4,30.12,North,-999,-999.0,-999.0,78,0.00,,,0.00,AD6XL-WX-0.1,2013-02-25 06:58:00,
2013-02-24 23:03:00,44.6,37.8,30.12,North,-999,-999.0,-999.0,76,0.00,,,0.00,AD6XL-WX-0.1,2013-02-25 07:03:00,
2013-02-24 23:08:00,44.6,37.3,30.12,North,-999,-999.0,-999.0,75,0.00,,,0.00,AD6XL-WX-0.1,2013-02-25 07:08:00,
2013-02-24 23:13:00,44.7,36.7,30.12,North,-999,-999.0,-999.0,73,0.00,,,0.00,AD6XL-WX-0.1,2013-02-25 07:13:00,
2013-02-24 23:18:00,44.7,35.9,30.12,North,-999,-999.0,-999.0,71,0.00,,,0.00,AD6XL-WX-0.1,2013-02-25 07:18:00,
2013-02-24 23:23:00,44.8,35.6,30.11,North,-999,-999.0,-999.0,70,0.00,,,0.00,AD6XL-WX-0.1,2013-02-25 07:23:00,
2013-02-24 23:28:00,44.8,35.7,30.11,North,-999,-999.0,-999.0,70,0.00,,,0.00,AD6XL-WX-0.1,2013-02-25 07:28:00,
2013-02-24 23:33:00,44.8,35.9,30.11,North,-999,-999.0,-999.0,70,0.00,,,0.00,AD6XL-WX-0.1,2013-02-25 07:33:00,
2013-02-24 23:38:00,44.8,36.3,30.10,North,-999,-999.0,-999.0,71,0.00,,,0.00,AD6XL-WX-0.1,2013-02-25 07:38:00,
2013-02-24 23:43:00,44.8,36.5,30.10,North,-999,-999.0,-999.0,72,0.00,,,0.00,AD6XL-WX-0.1,2013-02-25 07:43:00,
2013-02-24 23:48:00,44.9,36.9,30.10,North,-999,-999.0,-999.0,73,0.00,,,0.00,AD6XL-WX-0.1,2013-02-25 07:48:00,
2013-02-24 23:53:00,45.0,37.5,30.10,North,-999,-999.0,-999.0,74,0.00,,,0.00,AD6XL-WX-0.1,2013-02-25 07:53:00,
2013-02-24 23:58:00,45.1,37.9,30.10,North,-999,-999.0,-999.0,75,0.00,,,0.00,AD6XL-WX-0.1,2013-02-25 07:58:00,